createdAt,value
2023-04-03T00:00:08.118Z,0.80
2023-04-03T00:02:35.398Z,0.77
2023-04-03T00:05:02.572Z,0.65
2023-04-03T00:07:29.614Z,0.64
2023-04-03T00:09:56.756Z,0.70
2023-04-03T00:12:23.833Z,0.63
2023-04-03T00:14:50.918Z,0.62
2023-04-03T00:17:17.984Z,0.63
2023-04-03T00:19:45.071Z,0.58
2023-04-03T00:22:12.167Z,0.54
2023-04-03T00:24:39.330Z,0.56
2023-04-03T00:27:06.391Z,0.67
2023-04-03T00:29:33.446Z,0.54
2023-04-03T00:32:00.515Z,0.50
2023-04-03T00:34:27.609Z,0.50
2023-04-03T00:36:54.936Z,0.46
2023-04-03T00:39:22.116Z,0.48
2023-04-03T00:41:49.340Z,0.54
2023-04-03T00:44:23.321Z,0.55
2023-04-03T00:46:50.441Z,0.55
2023-04-03T00:49:17.550Z,0.48
2023-04-03T00:51:44.629Z,0.47
2023-04-03T00:54:12.284Z,0.42
2023-04-03T00:56:39.764Z,0.49
2023-04-03T00:59:09.509Z,0.52
2023-04-03T01:01:37.507Z,0.47
2023-04-03T01:04:06.895Z,0.39
2023-04-03T01:06:36.263Z,0.43
2023-04-03T01:09:07.612Z,0.41
2023-04-03T01:11:34.710Z,0.40
2023-04-03T01:14:02.998Z,0.33
2023-04-03T01:16:32.811Z,0.29
2023-04-03T01:19:01.504Z,0.33
2023-04-03T01:21:49.145Z,0.29
2023-04-03T01:24:23.745Z,0.32
2023-04-03T01:26:51.426Z,0.25
2023-04-03T01:29:18.910Z,0.25
2023-04-03T01:31:53.471Z,0.21
2023-04-03T01:34:21.131Z,0.14
2023-04-03T01:36:48.568Z,0.15
2023-04-03T01:39:15.624Z,0.17
2023-04-03T01:41:43.083Z,0.13
2023-04-03T01:44:22.946Z,0.10
2023-04-03T01:46:50.097Z,0.13
2023-04-03T01:49:17.465Z,0.11
2023-04-03T01:51:45.437Z,0.12
2023-04-03T01:54:12.670Z,0.16
2023-04-03T01:56:40.090Z,0.14
2023-04-03T01:59:07.378Z,0.27
2023-04-03T02:01:34.749Z,0.16
2023-04-03T02:04:01.906Z,0.17
2023-04-03T02:06:29.041Z,0.16
2023-04-03T02:08:56.587Z,0.16
2023-04-03T02:11:23.686Z,0.08
2023-04-03T02:13:50.790Z,0.11
2023-04-03T02:16:17.910Z,0.14
2023-04-03T02:18:44.995Z,0.10
2023-04-03T02:21:12.212Z,0.12
2023-04-03T02:23:39.604Z,0.13
2023-04-03T02:26:07.090Z,0.13
2023-04-03T02:28:34.375Z,0.05
2023-04-03T02:31:01.683Z,0.08
2023-04-03T02:33:29.735Z,0.14
2023-04-03T02:35:57.539Z,0.13
2023-04-03T02:38:25.479Z,0.08
2023-04-03T02:40:53.247Z,0.07
2023-04-03T02:43:20.295Z,0.13
2023-04-03T02:45:47.528Z,0.08
2023-04-03T02:48:15.789Z,0.03
2023-04-03T02:50:42.879Z,0.05
2023-04-03T02:53:09.973Z,0.15
2023-04-03T02:55:37.211Z,0.11
2023-04-03T02:58:04.607Z,0.12
2023-04-03T03:00:32.122Z,0.31
2023-04-03T03:02:59.303Z,0.17
2023-04-03T03:05:26.682Z,0.21
2023-04-03T03:07:53.922Z,0.14
2023-04-03T03:10:21.207Z,0.20
2023-04-03T03:12:48.472Z,0.25
2023-04-03T03:15:16.612Z,0.08
2023-04-03T03:17:44.011Z,0.32
2023-04-03T03:20:11.524Z,0.33
2023-04-03T03:22:38.589Z,0.35
2023-04-03T03:25:06.059Z,0.22
2023-04-03T03:27:33.141Z,0.15
2023-04-03T03:30:00.347Z,0.27
2023-04-03T03:32:27.484Z,0.03
2023-04-03T03:34:54.538Z,-0.06
2023-04-03T03:37:21.605Z,-0.08
2023-04-03T03:39:48.770Z,-0.07
2023-04-03T03:42:16.577Z,-0.11
2023-04-03T03:44:44.116Z,-0.06
2023-04-03T03:47:12.050Z,-0.03
2023-04-03T03:49:39.560Z,-0.17
2023-04-03T03:52:06.648Z,-0.12
2023-04-03T03:54:33.731Z,-0.12
2023-04-03T03:57:01.379Z,-0.09
2023-04-03T03:59:30.982Z,-0.14
2023-04-03T04:01:58.310Z,-0.17
2023-04-03T04:04:25.523Z,-0.16
2023-04-03T04:06:52.825Z,-0.18
2023-04-03T04:09:20.664Z,-0.19
2023-04-03T04:11:47.829Z,-0.24
2023-04-03T04:14:17.354Z,-0.23
2023-04-03T04:16:44.831Z,-0.24
2023-04-03T04:19:16.847Z,-0.22
2023-04-03T04:21:45.288Z,-0.27
2023-04-03T04:24:12.498Z,-0.29
2023-04-03T04:26:40.333Z,-0.10
2023-04-03T04:29:11.095Z,-0.18
2023-04-03T04:31:38.398Z,-0.22
2023-04-03T04:34:05.962Z,-0.24
2023-04-03T04:36:33.116Z,-0.20
2023-04-03T04:39:00.615Z,-0.29
2023-04-03T04:41:28.460Z,-0.20
2023-04-03T04:43:55.716Z,-0.24
2023-04-03T04:46:23.433Z,-0.20
2023-04-03T04:48:55.389Z,-0.33
2023-04-03T04:51:23.507Z,-0.34
2023-04-03T04:53:50.620Z,-0.26
2023-04-03T04:56:19.923Z,-0.27
2023-04-03T04:58:47.733Z,-0.30
2023-04-03T05:01:16.941Z,-0.30
2023-04-03T05:03:52.686Z,-0.34
2023-04-03T05:06:20.703Z,-0.36
2023-04-03T05:08:47.958Z,-0.33
2023-04-03T05:11:15.080Z,-0.27
2023-04-03T05:13:43.919Z,-0.25
2023-04-03T05:16:12.405Z,-0.32
2023-04-03T05:18:39.712Z,-0.29
2023-04-03T05:21:10.469Z,-0.25
2023-04-03T05:23:37.622Z,-0.27
2023-04-03T05:26:05.348Z,-0.13
2023-04-03T05:28:32.936Z,-0.15
2023-04-03T05:31:00.650Z,-0.12
2023-04-03T05:33:33.592Z,-0.07
2023-04-03T05:36:05.227Z,-0.07
2023-04-03T05:38:35.137Z,-0.12
2023-04-03T05:41:02.393Z,-0.07
2023-04-03T05:43:29.614Z,0.02
2023-04-03T05:45:57.236Z,0.07
2023-04-03T05:48:26.870Z,0.02
2023-04-03T05:50:56.944Z,0.06
2023-04-03T05:53:28.052Z,0.14
2023-04-03T05:55:56.837Z,0.11
2023-04-03T05:58:24.734Z,0.26
2023-04-03T06:00:53.695Z,0.21
2023-04-03T06:03:21.087Z,0.27
2023-04-03T06:05:50.310Z,0.35
2023-04-03T06:08:17.370Z,0.39
2023-04-03T06:10:44.470Z,0.42
2023-04-03T06:13:13.012Z,0.46
2023-04-03T06:15:41.359Z,0.45
2023-04-03T06:18:09.909Z,0.53
2023-04-03T06:20:37.358Z,0.56
2023-04-03T06:23:05.146Z,0.68
2023-04-03T06:25:32.895Z,0.71
2023-04-03T06:27:59.945Z,0.67
2023-04-03T06:30:27.352Z,0.75
2023-04-03T06:32:54.452Z,0.73
2023-04-03T06:35:21.985Z,0.76
2023-04-03T06:37:49.055Z,0.80
2023-04-03T06:40:19.674Z,0.88
2023-04-03T06:42:47.153Z,0.89
2023-04-03T06:45:14.355Z,1.00
2023-04-03T06:47:41.785Z,1.05
2023-04-03T06:50:12.362Z,1.11
2023-04-03T06:52:41.076Z,1.27
2023-04-03T06:55:09.253Z,1.23
2023-04-03T06:57:36.864Z,1.26
2023-04-03T07:00:05.330Z,1.09
2023-04-03T07:02:32.674Z,1.13
2023-04-03T07:04:59.885Z,1.13
2023-04-03T07:07:26.976Z,1.12
2023-04-03T07:09:54.421Z,1.19
2023-04-03T07:12:21.717Z,1.21
2023-04-03T07:14:48.787Z,1.20
2023-04-03T07:17:16.066Z,1.11
2023-04-03T07:19:43.161Z,1.13
2023-04-03T07:22:11.996Z,1.16
2023-04-03T07:24:39.073Z,1.22
2023-04-03T07:27:06.527Z,1.27
2023-04-03T07:29:33.571Z,1.27
2023-04-03T07:32:00.950Z,1.40
2023-04-03T07:34:28.085Z,1.37
2023-04-03T07:36:55.801Z,1.44
2023-04-03T07:39:22.924Z,1.42
2023-04-03T07:41:49.985Z,1.48
2023-04-03T07:44:18.177Z,1.47
2023-04-03T07:46:45.271Z,1.64
2023-04-03T07:49:12.340Z,1.65
2023-04-03T07:51:39.440Z,1.69
2023-04-03T07:54:06.554Z,1.75
2023-04-03T07:56:34.461Z,1.54
2023-04-03T07:59:01.638Z,1.58
2023-04-03T08:01:28.776Z,1.80
2023-04-03T08:03:55.933Z,1.83
2023-04-03T08:06:33.051Z,1.82
2023-04-03T08:09:05.153Z,1.73
2023-04-03T08:11:32.385Z,1.85
2023-04-03T08:13:59.446Z,1.83
2023-04-03T08:16:27.979Z,1.85
2023-04-03T08:18:55.940Z,1.75
2023-04-03T08:21:23.086Z,1.69
2023-04-03T08:23:51.718Z,1.90
2023-04-03T08:26:21.725Z,2.01
2023-04-03T08:28:49.128Z,1.96
2023-04-03T08:31:18.154Z,2.03
2023-04-03T08:33:45.824Z,1.94
2023-04-03T08:36:21.132Z,1.84
2023-04-03T08:38:48.429Z,1.75
2023-04-03T08:41:17.188Z,1.70
2023-04-03T08:43:44.216Z,1.68
2023-04-03T08:46:14.676Z,1.54
2023-04-03T08:48:44.816Z,1.55
2023-04-03T08:51:16.317Z,1.54
2023-04-03T08:53:47.362Z,1.58
2023-04-03T08:56:15.921Z,1.48
2023-04-03T08:58:51.560Z,1.53
2023-04-03T09:01:21.157Z,1.59
2023-04-03T09:03:48.339Z,1.59
2023-04-03T09:06:23.509Z,1.59
2023-04-03T09:08:56.674Z,1.79
2023-04-03T09:11:29.325Z,1.87
2023-04-03T09:14:15.263Z,1.92
2023-04-03T09:16:59.198Z,1.98
2023-04-03T09:19:32.243Z,2.00
2023-04-03T09:22:02.662Z,1.96
2023-04-03T09:24:32.425Z,2.00
2023-04-03T09:27:03.451Z,2.04
2023-04-03T09:29:30.904Z,1.99
2023-04-03T09:32:00.723Z,2.06
2023-04-03T09:34:31.545Z,2.32
2023-04-03T09:36:59.793Z,2.65
2023-04-03T09:39:28.530Z,2.50
2023-04-03T09:42:03.058Z,2.43
2023-04-03T09:44:32.174Z,2.48
2023-04-03T09:46:59.651Z,2.45
2023-04-03T09:49:27.185Z,2.35
2023-04-03T09:51:54.807Z,2.17
2023-04-03T09:54:27.329Z,2.12
2023-04-03T09:56:56.710Z,2.03
2023-04-03T09:59:24.146Z,2.03
2023-04-03T10:02:02.974Z,2.02
2023-04-03T10:04:41.634Z,2.02
2023-04-03T10:07:27.764Z,2.01
2023-04-03T10:09:58.720Z,1.91
2023-04-03T10:12:25.869Z,2.03
2023-04-03T10:14:56.911Z,2.18
2023-04-03T10:17:27.106Z,2.20
2023-04-03T10:19:57.578Z,2.02
2023-04-03T10:22:27.561Z,2.27
2023-04-03T10:25:04.154Z,2.46
2023-04-03T10:27:57.425Z,3.31
2023-04-03T10:30:43.200Z,3.53
2023-04-03T10:33:11.267Z,3.12
2023-04-03T10:35:54.700Z,3.05
2023-04-03T10:38:32.168Z,3.00
2023-04-03T10:40:59.263Z,3.41
2023-04-03T10:43:34.260Z,2.80
2023-04-03T10:46:04.686Z,2.92
2023-04-03T10:48:31.749Z,2.89
2023-04-03T10:51:08.242Z,3.03
2023-04-03T10:53:54.710Z,2.81
2023-04-03T10:56:37.205Z,3.02
2023-04-03T10:59:23.866Z,3.20
2023-04-03T11:01:54.369Z,2.87
2023-04-03T11:04:23.954Z,2.90
2023-04-03T11:07:08.946Z,2.86
2023-04-03T11:09:40.571Z,3.02
2023-04-03T11:12:13.687Z,2.87
2023-04-03T11:14:41.131Z,2.94
2023-04-03T11:17:31.649Z,3.25
2023-04-03T11:20:09.956Z,3.63
2023-04-03T11:22:39.990Z,3.46
2023-04-03T11:25:11.329Z,3.83
2023-04-03T11:27:44.664Z,4.04
2023-04-03T11:30:19.579Z,4.01
2023-04-03T11:32:49.456Z,3.51
2023-04-03T11:35:18.054Z,3.57
2023-04-03T11:37:52.831Z,3.37
2023-04-03T11:40:26.362Z,4.04
2023-04-03T11:43:04.307Z,3.56
2023-04-03T11:45:38.151Z,3.63
2023-04-03T11:48:25.234Z,3.64
2023-04-03T11:50:52.987Z,4.41
2023-04-03T11:53:28.748Z,4.35
2023-04-03T11:56:00.879Z,4.06
2023-04-03T11:58:34.985Z,4.08
2023-04-03T12:01:12.268Z,4.12
2023-04-03T12:03:43.439Z,3.99
2023-04-03T12:06:17.813Z,3.99
2023-04-03T12:08:46.684Z,3.81
2023-04-03T12:11:14.007Z,3.85
2023-04-03T12:13:50.422Z,4.05
2023-04-03T12:16:22.308Z,3.80
2023-04-03T12:18:52.586Z,3.84
2023-04-03T12:21:22.450Z,4.13
2023-04-03T12:23:58.438Z,4.10
2023-04-03T12:26:35.529Z,4.43
2023-04-03T12:29:18.874Z,3.93
2023-04-03T12:32:09.338Z,4.41
2023-04-03T12:34:55.224Z,3.99
2023-04-03T12:37:40.891Z,4.01
2023-04-03T12:40:11.599Z,4.28
2023-04-03T12:42:41.431Z,4.21
2023-04-03T12:45:21.807Z,4.27
2023-04-03T12:47:53.374Z,4.42
2023-04-03T12:50:24.854Z,4.69
2023-04-03T12:53:21.400Z,4.35
2023-04-03T12:55:48.610Z,4.76
2023-04-03T12:58:23.138Z,4.64
2023-04-03T13:01:00.049Z,4.38
2023-04-03T13:03:28.271Z,4.48
2023-04-03T13:05:58.271Z,4.49
2023-04-03T13:08:25.711Z,4.34
2023-04-03T13:11:02.608Z,4.65
2023-04-03T13:13:29.901Z,4.43
2023-04-03T13:15:57.173Z,4.54
2023-04-03T13:18:34.858Z,4.54
2023-04-03T13:21:31.181Z,4.32
2023-04-03T13:24:14.078Z,4.07
2023-04-03T13:26:43.164Z,4.28
2023-04-03T13:29:28.154Z,4.35
2023-04-03T13:31:59.068Z,4.26
2023-04-03T13:34:28.724Z,4.34
2023-04-03T13:36:56.950Z,4.11
2023-04-03T13:39:27.005Z,3.94
2023-04-03T13:41:55.414Z,4.15
2023-04-03T13:44:22.476Z,4.40
2023-04-03T13:47:00.523Z,4.24
2023-04-03T13:49:36.505Z,4.27
2023-04-03T13:52:23.864Z,4.30
2023-04-03T13:54:56.127Z,4.15
2023-04-03T13:57:23.195Z,4.00
2023-04-03T13:59:51.081Z,3.90
2023-04-03T14:02:20.246Z,3.98
2023-04-03T14:04:49.507Z,3.77
2023-04-03T14:07:17.847Z,3.67
2023-04-03T14:09:44.964Z,4.10
2023-04-03T14:12:32.585Z,4.21
2023-04-03T14:15:04.511Z,4.20
2023-04-03T14:17:32.136Z,3.94
2023-04-03T14:19:59.676Z,3.97
2023-04-03T14:22:29.303Z,3.87
2023-04-03T14:24:57.168Z,3.81
2023-04-03T14:27:26.089Z,3.92
2023-04-03T14:29:54.229Z,4.08
2023-04-03T14:32:23.061Z,4.08
2023-04-03T14:34:51.970Z,3.79
2023-04-03T14:37:21.182Z,4.03
2023-04-03T14:39:48.243Z,3.65
2023-04-03T14:42:17.249Z,3.38
2023-04-03T14:44:44.330Z,3.44
2023-04-03T14:47:29.866Z,3.55
2023-04-03T14:49:59.394Z,3.66
2023-04-03T14:52:29.016Z,3.60
2023-04-03T14:54:56.358Z,3.91
2023-04-03T14:57:25.009Z,4.00
2023-04-03T14:59:52.179Z,3.90
2023-04-03T15:02:25.467Z,3.76
2023-04-03T15:04:53.725Z,3.68
2023-04-03T15:07:21.141Z,3.68
2023-04-03T15:09:48.434Z,3.51
2023-04-03T15:12:15.864Z,3.95
2023-04-03T15:14:51.804Z,4.11
2023-04-03T15:17:22.429Z,3.96
2023-04-03T15:19:49.582Z,3.86
2023-04-03T15:22:17.648Z,3.76
2023-04-03T15:24:44.832Z,3.89
2023-04-03T15:27:13.566Z,3.80
2023-04-03T15:29:42.263Z,3.68
2023-04-03T15:32:10.085Z,3.50
2023-04-03T15:34:37.984Z,3.28
2023-04-03T15:37:05.277Z,3.17
2023-04-03T15:39:32.431Z,3.30
2023-04-03T15:42:06.780Z,3.35
2023-04-03T15:44:36.651Z,3.47
2023-04-03T15:47:03.864Z,3.53
2023-04-03T15:49:31.783Z,3.55
2023-04-03T15:51:58.876Z,3.58
2023-04-03T15:54:26.435Z,3.43
2023-04-03T15:56:53.983Z,3.52
2023-04-03T15:59:21.285Z,3.28
2023-04-03T16:01:48.957Z,3.46
2023-04-03T16:04:17.008Z,3.58
2023-04-03T16:06:44.598Z,3.41
2023-04-03T16:09:11.795Z,3.25
2023-04-03T16:11:40.897Z,3.20
2023-04-03T16:14:08.563Z,3.17
2023-04-03T16:16:36.105Z,3.16
2023-04-03T16:19:03.345Z,3.20
2023-04-03T16:21:30.628Z,3.17
2023-04-03T16:23:59.195Z,3.18
2023-04-03T16:26:27.812Z,3.14
2023-04-03T16:28:55.451Z,3.06
2023-04-03T16:31:23.549Z,3.03
2023-04-03T16:33:50.942Z,3.11
2023-04-03T16:36:18.170Z,3.11
2023-04-03T16:38:45.369Z,3.04
2023-04-03T16:41:12.444Z,3.05
2023-04-03T16:43:39.491Z,3.02
2023-04-03T16:46:06.594Z,2.98
2023-04-03T16:48:33.713Z,2.94
2023-04-03T16:51:00.873Z,2.91
2023-04-03T16:53:28.405Z,2.78
2023-04-03T16:55:55.746Z,2.82
2023-04-03T16:58:23.962Z,2.78
2023-04-03T17:00:51.896Z,2.77
2023-04-03T17:03:18.982Z,2.72
2023-04-03T17:05:49.095Z,2.73
2023-04-03T17:08:17.555Z,2.63
2023-04-03T17:10:44.621Z,2.60
2023-04-03T17:13:11.692Z,2.51
2023-04-03T17:15:39.120Z,2.51
2023-04-03T17:18:07.685Z,2.47
2023-04-03T17:20:37.107Z,2.34
2023-04-03T17:23:04.722Z,2.29
2023-04-03T17:25:31.964Z,2.31
2023-04-03T17:27:59.087Z,2.27
2023-04-03T17:30:26.210Z,2.21
2023-04-03T17:32:53.318Z,2.17
2023-04-03T17:35:20.405Z,2.14
2023-04-03T17:37:48.982Z,2.11
2023-04-03T17:40:17.904Z,2.02
2023-04-03T17:42:45.084Z,2.02
2023-04-03T17:45:12.263Z,1.99
2023-04-03T17:47:39.455Z,1.94
2023-04-03T17:50:06.776Z,1.91
2023-04-03T17:52:33.934Z,1.86
2023-04-03T17:55:01.247Z,1.85
2023-04-03T17:57:28.331Z,1.79
2023-04-03T17:59:55.392Z,1.72
2023-04-03T18:02:22.652Z,1.71
2023-04-03T18:04:53.564Z,1.59
2023-04-03T18:07:20.804Z,1.56
2023-04-03T18:09:49.246Z,1.54
2023-04-03T18:12:18.750Z,1.52
2023-04-03T18:14:46.144Z,1.46
2023-04-03T18:17:13.316Z,1.42
2023-04-03T18:19:40.401Z,1.39
2023-04-03T18:22:16.235Z,1.37
2023-04-03T18:24:44.106Z,1.39
2023-04-03T18:27:12.964Z,1.28
2023-04-03T18:29:41.036Z,1.19
2023-04-03T18:32:10.204Z,1.18
2023-04-03T18:34:38.188Z,1.06
2023-04-03T18:37:06.037Z,1.05
2023-04-03T18:39:33.194Z,1.07
2023-04-03T18:42:04.173Z,0.99
2023-04-03T18:44:32.006Z,1.08
2023-04-03T18:46:59.919Z,0.92
2023-04-03T18:49:30.544Z,0.90
2023-04-03T18:51:57.697Z,0.89
2023-04-03T18:54:24.738Z,0.86
2023-04-03T18:56:51.839Z,0.86
2023-04-03T18:59:18.937Z,0.76
2023-04-03T19:01:46.048Z,0.74
2023-04-03T19:04:13.500Z,0.67
2023-04-03T19:06:40.608Z,0.69
2023-04-03T19:09:08.064Z,0.72
2023-04-03T19:11:35.394Z,0.68
2023-04-03T19:14:14.353Z,0.56
2023-04-03T19:16:42.882Z,0.57
2023-04-03T19:19:09.955Z,0.53
2023-04-03T19:21:41.117Z,0.52
2023-04-03T19:24:09.339Z,0.49
2023-04-03T19:26:38.767Z,0.46
2023-04-03T19:29:05.944Z,0.50
2023-04-03T19:31:33.969Z,0.41
2023-04-03T19:34:02.622Z,0.42
2023-04-03T19:36:30.480Z,0.18
2023-04-03T19:38:57.704Z,0.37
2023-04-03T19:41:27.306Z,0.36
2023-04-03T19:43:55.744Z,0.33
2023-04-03T19:46:23.889Z,0.35
2023-04-03T19:48:51.275Z,0.28
2023-04-03T19:51:18.553Z,0.25
2023-04-03T19:53:47.305Z,0.25
2023-04-03T19:56:16.567Z,0.23
2023-04-03T19:58:43.986Z,0.22
2023-04-03T20:01:11.445Z,0.24
2023-04-03T20:03:39.688Z,0.17
2023-04-03T20:06:06.734Z,0.19
2023-04-03T20:08:34.537Z,0.20
2023-04-03T20:11:01.697Z,0.11
2023-04-03T20:13:31.189Z,0.10
2023-04-03T20:16:01.682Z,0.02
2023-04-03T20:18:28.959Z,-0.02
2023-04-03T20:20:57.710Z,0.03
2023-04-03T20:23:25.215Z,-0.05
2023-04-03T20:26:05.768Z,-0.13
2023-04-03T20:28:36.372Z,-0.14
2023-04-03T20:31:03.837Z,-0.19
2023-04-03T20:33:31.154Z,-0.26
2023-04-03T20:35:58.495Z,-0.29
2023-04-03T20:38:25.743Z,-0.23
2023-04-03T20:40:52.872Z,-0.29
2023-04-03T20:43:21.761Z,-0.37
2023-04-03T20:45:49.825Z,-0.37
2023-04-03T20:48:18.103Z,-0.41
2023-04-03T20:50:46.500Z,-0.47
2023-04-03T20:53:15.019Z,-0.46
2023-04-03T20:55:42.530Z,-0.40
2023-04-03T20:58:09.858Z,-0.34
2023-04-03T21:00:38.009Z,-0.41
2023-04-03T21:03:06.098Z,-0.39
2023-04-03T21:05:35.069Z,-0.54
2023-04-03T21:08:20.855Z,-0.51
2023-04-03T21:11:06.864Z,-0.43
2023-04-03T21:13:53.665Z,-0.44
2023-04-03T21:16:21.653Z,-0.46
2023-04-03T21:18:53.614Z,-0.50
2023-04-03T21:21:23.310Z,-0.49
2023-04-03T21:23:51.047Z,-0.42
2023-04-03T21:26:18.253Z,-0.46
2023-04-03T21:28:45.656Z,-0.61
2023-04-03T21:31:12.852Z,-0.69
2023-04-03T21:33:40.056Z,-0.62
2023-04-03T21:36:07.916Z,-0.57
2023-04-03T21:38:38.152Z,-0.71
2023-04-03T21:41:05.213Z,-0.73
2023-04-03T21:43:32.329Z,-0.62
2023-04-03T21:45:59.920Z,-0.77
2023-04-03T21:48:30.840Z,-0.88
2023-04-03T21:51:07.070Z,-0.85
2023-04-03T21:53:34.497Z,-0.83
2023-04-03T21:56:02.680Z,-0.76
2023-04-03T21:58:35.799Z,-0.76
2023-04-03T22:01:09.957Z,-0.71
2023-04-03T22:03:37.684Z,-0.82
2023-04-03T22:06:04.970Z,-0.95
2023-04-03T22:08:32.031Z,-0.87
2023-04-03T22:11:03.401Z,-0.85
2023-04-03T22:13:30.847Z,-0.96
2023-04-03T22:15:59.489Z,-0.86
2023-04-03T22:18:27.250Z,-0.88
2023-04-03T22:20:55.038Z,-0.88
2023-04-03T22:23:22.526Z,-0.88
2023-04-03T22:26:01.795Z,-0.97
2023-04-03T22:28:29.661Z,-1.01
2023-04-03T22:30:57.160Z,-0.85
2023-04-03T22:33:24.400Z,-0.93
2023-04-03T22:35:51.671Z,-0.77
2023-04-03T22:38:18.795Z,-0.96
2023-04-03T22:40:46.077Z,-0.82
2023-04-03T22:43:13.394Z,-0.81
2023-04-03T22:45:47.186Z,-0.98
2023-04-03T22:48:15.036Z,-0.90
2023-04-03T22:50:42.461Z,-0.93
2023-04-03T22:53:09.990Z,-1.04
2023-04-03T22:55:38.136Z,-0.95
2023-04-03T22:58:05.700Z,-0.84
2023-04-03T23:00:33.002Z,-0.91
2023-04-03T23:03:01.372Z,-0.88
2023-04-03T23:05:28.781Z,-0.97
2023-04-03T23:07:56.072Z,-0.88
2023-04-03T23:10:23.214Z,-0.92
2023-04-03T23:12:50.305Z,-0.90
2023-04-03T23:15:19.531Z,-0.97
2023-04-03T23:17:48.417Z,-0.93
2023-04-03T23:20:15.578Z,-1.07
2023-04-03T23:22:44.018Z,-1.11
2023-04-03T23:25:11.383Z,-1.08
2023-04-03T23:27:38.496Z,-1.09
2023-04-03T23:30:05.970Z,-1.07
2023-04-03T23:32:33.025Z,-0.96
2023-04-03T23:35:00.118Z,-1.02
2023-04-03T23:37:27.356Z,-1.05
2023-04-03T23:39:54.492Z,-0.95
2023-04-03T23:42:21.563Z,-1.13
2023-04-03T23:44:48.567Z,-1.05
2023-04-03T23:47:15.849Z,-1.15
2023-04-03T23:49:42.869Z,-1.11
2023-04-03T23:52:09.922Z,-1.18
2023-04-03T23:54:36.942Z,-1.05
2023-04-03T23:57:04.082Z,-1.16
2023-04-03T23:59:31.239Z,-1.07
